Time;durP1;ratioP1;P1;durP2;ratioP2;P2;SDS_P1;SDS_P2;PMS_P1;PMS_P2;Temp;Humidity;BMP_temperature;BMP_pressure;BME280_temperature;BME280_humidity;BME280_pressure;Samples;Min_cycle;Max_cycle;Signal;HPM_P1;HPM_P2
2022/01/31 00:01:03;;;;;;;1999.90;999.90;;;4.50;99.90;;;;;;5053450;28;20858;-69
2022/01/31 00:03:33;;;;;;;1999.90;999.90;;;4.50;99.90;;;;;;5053402;28;20480;-69
2022/01/31 00:06:00;;;;;;;1999.90;999.90;;;4.50;99.90;;;;;;5034309;28;20446;-70
2022/01/31 00:08:28;;;;;;;1999.90;999.90;;;4.40;99.90;;;;;;5034382;28;21029;-70
2022/01/31 00:10:55;;;;;;;1999.90;999.90;;;4.40;99.90;;;;;;5055087;28;20477;-69
2022/01/31 00:13:26;;;;;;;1999.90;999.90;;;4.40;99.90;;;;;;5054227;28;20450;-69
2022/01/31 00:15:56;;;;;;;1999.90;999.90;;;4.30;99.90;;;;;;5054511;28;20458;-69
2022/01/31 00:18:22;;;;;;;1999.90;999.90;;;4.30;99.90;;;;;;5052785;28;20481;-69
2022/01/31 00:20:49;;;;;;;1999.90;999.90;;;4.30;99.90;;;;;;5054066;28;20512;-69
2022/01/31 00:23:16;;;;;;;1999.90;999.90;;;4.30;99.90;;;;;;5054136;28;20458;-71
2022/01/31 00:25:44;;;;;;;1999.90;999.90;;;4.20;99.90;;;;;;5054496;28;20495;-69
2022/01/31 00:28:10;;;;;;;1999.90;999.90;;;4.20;99.90;;;;;;5053598;28;20470;-69
2022/01/31 00:30:37;;;;;;;1999.90;999.90;;;4.20;99.90;;;;;;5053762;28;20454;-70
2022/01/31 00:33:04;;;;;;;1999.90;999.90;;;4.30;99.90;;;;;;5053342;28;20946;-69
2022/01/31 00:35:31;;;;;;;1999.90;999.90;;;4.30;99.90;;;;;;5054153;28;20492;-69
2022/01/31 00:37:58;;;;;;;1999.90;999.90;;;4.30;99.90;;;;;;5053481;28;20997;-69
2022/01/31 00:40:25;;;;;;;1999.90;999.90;;;4.30;99.90;;;;;;5053866;28;20524;-69
2022/01/31 00:42:53;;;;;;;1999.90;999.90;;;4.30;99.90;;;;;;5053564;28;20461;-70
2022/01/31 00:45:24;;;;;;;1999.90;999.90;;;4.30;99.90;;;;;;5053934;28;20519;-71
2022/01/31 00:48:00;;;;;;;1999.90;999.90;;;4.30;99.90;;;;;;5053329;28;20872;-69
2022/01/31 00:50:27;;;;;;;1999.90;999.90;;;4.20;99.90;;;;;;5053954;28;20437;-69
2022/01/31 00:52:54;;;;;;;1999.90;999.90;;;4.20;99.90;;;;;;5053402;28;20973;-69
2022/01/31 00:55:21;;;;;;;1999.90;999.90;;;4.20;99.90;;;;;;5053438;28;20454;-69
2022/01/31 00:57:48;;;;;;;1999.90;999.90;;;4.20;99.90;;;;;;5053115;28;20474;-69
2022/01/31 01:00:17;;;;;;;1999.90;999.90;;;4.20;99.90;;;;;;5053044;28;20474;-70
2022/01/31 01:02:45;;;;;;;1999.90;999.90;;;4.10;99.90;;;;;;5053210;28;20876;-69
2022/01/31 01:05:13;;;;;;;1999.90;999.90;;;4.20;99.90;;;;;;5053852;28;20450;-69
2022/01/31 01:07:40;;;;;;;1999.90;999.90;;;4.10;99.90;;;;;;5052444;28;20520;-69
2022/01/31 01:10:07;;;;;;;1999.90;999.90;;;4.10;99.90;;;;;;5053070;28;20504;-69
2022/01/31 01:12:34;;;;;;;1999.90;999.90;;;4.10;99.90;;;;;;5053428;28;20477;-69
2022/01/31 01:15:01;;;;;;;1999.90;999.90;;;4.10;99.90;;;;;;5052974;28;20450;-69
2022/01/31 01:17:29;;;;;;;1999.90;999.90;;;4.20;99.90;;;;;;5052827;28;20462;-69
2022/01/31 01:19:55;;;;;;;1999.90;999.90;;;4.20;99.90;;;;;;5052938;28;20831;-69
2022/01/31 01:22:22;;;;;;;1999.90;999.90;;;4.10;99.90;;;;;;5052891;28;20521;-69
2022/01/31 01:24:49;;;;;;;1999.90;999.90;;;4.10;99.90;;;;;;5053069;28;20442;-69
2022/01/31 01:27:18;;;;;;;1999.90;999.90;;;4.10;99.90;;;;;;5050841;28;20492;-69
2022/01/31 01:29:46;;;;;;;1999.90;999.90;;;4.10;99.90;;;;;;5050842;28;20553;-69
2022/01/31 01:32:13;;;;;;;1999.90;999.90;;;4.10;99.90;;;;;;5050770;28;20473;-71
2022/01/31 01:34:41;;;;;;;1999.90;999.90;;;4.10;99.90;;;;;;5051066;28;20442;-70
2022/01/31 01:37:08;;;;;;;1999.90;999.90;;;4.20;99.90;;;;;;5050885;28;20497;-68
2022/01/31 01:39:34;;;;;;;1999.90;999.90;;;4.10;99.90;;;;;;5050717;28;21019;-69
2022/01/31 01:42:01;;;;;;;1999.90;999.90;;;4.10;99.90;;;;;;5050626;28;20474;-69
2022/01/31 01:44:43;;;;;;;1999.90;999.90;;;4.20;99.90;;;;;;5051433;28;20455;-69
2022/01/31 01:47:10;;;;;;;1999.90;999.90;;;4.20;99.90;;;;;;5052690;28;20466;-69
2022/01/31 01:49:37;;;;;;;1999.90;999.90;;;4.20;99.90;;;;;;5052251;28;20482;-69
2022/01/31 01:52:06;;;;;;;1999.90;999.90;;;4.20;99.90;;;;;;5052168;28;20519;-69
2022/01/31 01:54:33;;;;;;;1999.90;999.90;;;4.20;99.90;;;;;;5052738;28;20946;-68
2022/01/31 01:57:02;;;;;;;1999.90;999.90;;;4.20;99.90;;;;;;5052577;28;20523;-69
2022/01/31 01:59:29;;;;;;;1999.90;999.90;;;4.20;99.90;;;;;;5052476;28;20838;-70
2022/01/31 02:01:56;;;;;;;1999.90;999.90;;;4.10;99.90;;;;;;5052402;28;20478;-69
2022/01/31 02:04:23;;;;;;;1999.90;999.90;;;4.00;99.90;;;;;;5053288;28;20451;-69
2022/01/31 02:06:49;;;;;;;1999.90;999.90;;;4.10;99.90;;;;;;5052051;28;20523;-69
2022/01/31 02:09:22;;;;;;;1999.90;999.90;;;4.00;99.90;;;;;;5052213;28;20446;-69
2022/01/31 02:11:48;;;;;;;1999.90;999.90;;;4.10;99.90;;;;;;5051758;28;20446;-69
2022/01/31 02:14:15;;;;;;;1999.90;999.90;;;4.00;99.90;;;;;;5051438;28;20458;-69
2022/01/31 02:16:42;;;;;;;1999.90;999.90;;;4.10;99.90;;;;;;5051754;28;20962;-69
2022/01/31 02:19:13;;;;;;;1999.90;999.90;;;4.10;99.90;;;;;;5052682;28;20450;-69
2022/01/31 02:21:42;;;;;;;1999.90;999.90;;;4.20;99.90;;;;;;5051828;28;20489;-69
2022/01/31 02:24:08;;;;;;;1999.90;999.90;;;4.30;99.90;;;;;;5051957;28;20875;-69
2022/01/31 02:26:35;;;;;;;1999.90;999.90;;;4.20;99.90;;;;;;5051586;28;20447;-70
2022/01/31 02:29:02;;;;;;;1999.90;999.90;;;4.20;99.90;;;;;;5052030;28;20458;-69
2022/01/31 02:31:29;;;;;;;1999.90;999.90;;;4.30;99.90;;;;;;5051830;28;20537;-69
2022/01/31 02:33:55;;;;;;;1999.90;999.90;;;4.20;99.90;;;;;;5052573;28;20449;-70
2022/01/31 02:36:22;;;;;;;1999.90;999.90;;;4.10;99.90;;;;;;5051479;28;20451;-68
2022/01/31 02:38:50;;;;;;;1999.90;999.90;;;4.10;99.90;;;;;;5051976;28;20508;-69
2022/01/31 02:41:16;;;;;;;1999.90;999.90;;;4.10;99.90;;;;;;5051328;28;20486;-69
2022/01/31 02:43:48;;;;;;;1999.90;999.90;;;4.10;99.90;;;;;;5051505;28;20525;-69
2022/01/31 02:46:16;;;;;;;1999.90;999.90;;;4.20;99.90;;;;;;5051871;28;20454;-69
2022/01/31 02:48:43;;;;;;;1999.90;999.90;;;4.30;99.90;;;;;;5051569;28;20520;-69
2022/01/31 02:51:10;;;;;;;1999.90;999.90;;;4.30;99.90;;;;;;5051404;28;20541;-69
2022/01/31 02:53:40;;;;;;;1999.90;999.90;;;4.00;99.90;;;;;;5051547;28;20553;-69
2022/01/31 02:56:09;;;;;;;1999.90;999.90;;;3.80;99.90;;;;;;5051788;28;20474;-71
2022/01/31 02:58:36;;;;;;;1999.90;999.90;;;4.00;99.90;;;;;;5051088;28;20524;-69
2022/01/31 03:01:03;;;;;;;1999.90;999.90;;;4.00;99.90;;;;;;5051579;28;20508;-69
2022/01/31 03:03:30;;;;;;;1999.90;999.90;;;3.90;99.90;;;;;;5051542;28;21012;-69
2022/01/31 03:05:56;;;;;;;1999.90;999.90;;;3.90;99.90;;;;;;5051389;28;21008;-69
2022/01/31 03:08:24;;;;;;;1999.90;999.90;;;3.80;99.90;;;;;;5051422;28;20524;-68
2022/01/31 03:10:50;;;;;;;1999.90;999.90;;;4.00;99.90;;;;;;5050909;28;20461;-71
2022/01/31 03:13:19;;;;;;;1999.90;999.90;;;4.10;99.90;;;;;;5051305;28;20454;-69
2022/01/31 03:15:45;;;;;;;1999.90;999.90;;;4.10;99.90;;;;;;5051742;28;20446;-69
2022/01/31 03:18:12;;;;;;;1999.90;999.90;;;4.10;99.90;;;;;;5051371;28;20561;-69
2022/01/31 03:20:38;;;;;;;1999.90;999.90;;;4.10;99.90;;;;;;5051049;28;20454;-69
2022/01/31 03:23:05;;;;;;;1999.90;999.90;;;4.10;99.90;;;;;;5051009;28;20996;-71
2022/01/31 03:25:33;;;;;;;1999.90;999.90;;;4.10;99.90;;;;;;5051660;28;20476;-69
2022/01/31 03:28:00;;;;;;;1999.90;999.90;;;4.10;99.90;;;;;;5052672;28;20474;-69
2022/01/31 03:30:29;;;;;;;1999.90;999.90;;;4.20;99.90;;;;;;5051545;28;20458;-69
2022/01/31 03:32:55;;;;;;;1999.90;999.90;;;4.10;99.90;;;;;;5052959;28;20458;-69
2022/01/31 03:35:23;;;;;;;1999.90;999.90;;;4.00;99.90;;;;;;5055719;28;20438;-70
2022/01/31 03:37:50;;;;;;;1999.90;999.90;;;4.00;99.90;;;;;;5055324;28;20469;-68
2022/01/31 03:40:17;;;;;;;1999.90;999.90;;;4.00;99.90;;;;;;5054657;28;20500;-70
2022/01/31 03:42:43;;;;;;;1999.90;999.90;;;3.90;99.90;;;;;;5055020;28;20482;-69
2022/01/31 03:45:12;;;;;;;1999.90;999.90;;;3.90;99.90;;;;;;5054864;28;20454;-69
2022/01/31 03:47:44;;;;;;;1999.90;999.90;;;3.90;99.90;;;;;;5054749;28;20482;-69
2022/01/31 03:50:12;;;;;;;1999.90;999.90;;;4.00;99.90;;;;;;5054492;28;20458;-69
2022/01/31 03:52:38;;;;;;;1999.90;999.90;;;4.00;99.90;;;;;;5054956;28;20495;-69
2022/01/31 03:55:06;;;;;;;1999.90;999.90;;;4.00;99.90;;;;;;5054234;28;20450;-69
2022/01/31 03:57:33;;;;;;;1999.90;999.90;;;4.00;99.90;;;;;;5054488;28;20893;-69
2022/01/31 04:00:01;;;;;;;1999.90;999.90;;;4.10;99.90;;;;;;5054053;28;20474;-66
2022/01/31 04:02:28;;;;;;;1999.90;999.90;;;4.10;99.90;;;;;;5054436;28;20488;-69
2022/01/31 04:04:56;;;;;;;1999.90;999.90;;;4.20;99.90;;;;;;5054757;28;20447;-70
2022/01/31 04:07:22;;;;;;;1999.90;999.90;;;4.20;99.90;;;;;;5054314;28;20466;-69
2022/01/31 04:09:49;;;;;;;1999.90;999.90;;;3.90;99.90;;;;;;5054436;28;20450;-71
2022/01/31 04:12:16;;;;;;;1999.90;999.90;;;3.90;99.90;;;;;;5053494;28;20450;-69
2022/01/31 04:14:43;;;;;;;1999.90;999.90;;;3.90;99.90;;;;;;5054021;28;20541;-69
2022/01/31 04:17:10;;;;;;;1999.90;999.90;;;3.80;99.90;;;;;;5053812;28;20896;-69
2022/01/31 04:19:38;;;;;;;1999.90;999.90;;;3.90;99.90;;;;;;5054483;28;20446;-69
2022/01/31 04:22:09;;;;;;;1999.90;999.90;;;3.90;99.90;;;;;;5053660;28;20474;-69
2022/01/31 04:24:35;;;;;;;1999.90;999.90;;;3.90;99.90;;;;;;5054451;28;20450;-69
2022/01/31 04:27:06;;;;;;;1999.90;999.90;;;3.90;99.90;;;;;;5053860;28;20891;-70
2022/01/31 04:29:35;;;;;;;1999.90;999.90;;;3.80;99.90;;;;;;5054000;28;20462;-69
2022/01/31 04:32:02;;;;;;;1999.90;999.90;;;3.90;99.90;;;;;;5053574;28;20442;-69
2022/01/31 04:34:31;;;;;;;1999.90;999.90;;;3.90;99.90;;;;;;5053902;28;20446;-69
2022/01/31 04:36:57;;;;;;;1999.90;999.90;;;4.00;99.90;;;;;;5053674;28;20845;-69
2022/01/31 04:39:27;;;;;;;1999.90;999.90;;;4.00;99.90;;;;;;5054226;28;20457;-69
2022/01/31 04:41:54;;;;;;;1999.90;999.90;;;4.10;99.90;;;;;;5053843;28;20486;-69
2022/01/31 04:44:21;;;;;;;1999.90;999.90;;;4.10;99.90;;;;;;5053006;28;20451;-68
2022/01/31 04:46:49;;;;;;;1999.90;999.90;;;4.00;99.90;;;;;;5053934;28;20454;-69
2022/01/31 04:49:16;;;;;;;1999.90;999.90;;;3.90;99.90;;;;;;5053416;28;20450;-70
2022/01/31 04:51:42;;;;;;;1999.90;999.90;;;3.90;99.90;;;;;;5053815;28;20450;-69
2022/01/31 04:54:09;;;;;;;1999.90;999.90;;;4.00;99.90;;;;;;5053494;28;20458;-69
2022/01/31 04:56:40;;;;;;;1999.90;999.90;;;4.10;99.90;;;;;;5053191;28;21027;-69
2022/01/31 04:59:07;;;;;;;1999.90;999.90;;;4.10;99.90;;;;;;5053631;28;20447;-68
2022/01/31 05:01:34;;;;;;;1999.90;999.90;;;4.20;99.90;;;;;;5053290;28;20555;-69
2022/01/31 05:04:00;;;;;;;1999.90;999.90;;;4.20;99.90;;;;;;5051986;28;20537;-68
2022/01/31 05:06:32;;;;;;;1999.90;999.90;;;4.20;99.90;;;;;;5053475;28;20449;-69
2022/01/31 05:08:59;;;;;;;1999.90;999.90;;;4.20;99.90;;;;;;5053406;28;20446;-69
2022/01/31 05:11:25;;;;;;;1999.90;999.90;;;4.20;99.90;;;;;;5052808;28;20545;-70
2022/01/31 05:13:53;;;;;;;1999.90;999.90;;;4.20;99.90;;;;;;5053281;28;20504;-69
2022/01/31 05:16:20;;;;;;;1999.90;999.90;;;4.20;99.90;;;;;;5053164;28;20496;-69
2022/01/31 05:18:47;;;;;;;1999.90;999.90;;;4.10;99.90;;;;;;5052681;28;20474;-69
2022/01/31 05:21:13;;;;;;;1999.90;999.90;;;4.20;99.90;;;;;;5053134;28;20485;-69
2022/01/31 05:23:40;;;;;;;1999.90;999.90;;;4.20;99.90;;;;;;5053181;28;20532;-68
2022/01/31 05:26:07;;;;;;;1999.90;999.90;;;4.20;99.90;;;;;;5053788;28;20504;-69
2022/01/31 05:28:34;;;;;;;1999.90;999.90;;;4.00;99.90;;;;;;5052540;28;20474;-69
2022/01/31 05:31:02;;;;;;;1999.90;999.90;;;4.00;99.90;;;;;;5052490;28;20476;-69
2022/01/31 05:33:28;;;;;;;1999.90;999.90;;;4.00;99.90;;;;;;5052748;28;20481;-69
2022/01/31 05:35:56;;;;;;;1999.90;999.90;;;4.00;99.90;;;;;;5052574;28;20935;-70
2022/01/31 05:38:22;;;;;;;1999.90;999.90;;;4.00;99.90;;;;;;5052538;28;20978;-68
2022/01/31 05:40:49;;;;;;;1999.90;999.90;;;4.00;99.90;;;;;;5052098;28;20486;-69
2022/01/31 05:43:19;;;;;;;1999.90;999.90;;;3.90;99.90;;;;;;5052831;28;20481;-70
2022/01/31 05:45:46;;;;;;;1999.90;999.90;;;3.90;99.90;;;;;;5052728;28;20567;-68
2022/01/31 05:48:18;;;;;;;1999.90;999.90;;;3.90;99.90;;;;;;5052111;28;20524;-67
2022/01/31 05:50:45;;;;;;;1999.90;999.90;;;3.80;99.90;;;;;;5052194;28;21010;-69
2022/01/31 05:53:12;;;;;;;1999.90;999.90;;;3.80;99.90;;;;;;5051898;28;21012;-68
2022/01/31 05:55:40;;;;;;;1999.90;999.90;;;4.00;99.90;;;;;;5052026;28;20870;-71
2022/01/31 05:58:07;;;;;;;1999.90;999.90;;;4.10;99.90;;;;;;5052219;28;20925;-69
2022/01/31 06:00:34;;;;;;;1999.90;999.90;;;4.10;99.90;;;;;;5052398;28;20576;-68
2022/01/31 06:03:01;;;;;;;1999.90;999.90;;;4.00;99.90;;;;;;5052015;28;20514;-70
2022/01/31 06:05:29;;;;;;;1999.90;999.90;;;3.90;99.90;;;;;;5052307;28;20454;-69
2022/01/31 06:07:56;;;;;;;1999.90;999.90;;;3.80;99.90;;;;;;5051770;28;20908;-71
2022/01/31 06:10:23;;;;;;;1999.90;999.90;;;3.60;99.90;;;;;;5052198;28;20504;-69
2022/01/31 06:12:51;;;;;;;1999.90;999.90;;;3.50;99.90;;;;;;5051958;28;21007;-69
2022/01/31 06:15:18;;;;;;;1999.90;999.90;;;3.50;99.90;;;;;;5052286;28;20450;-68
2022/01/31 06:17:45;;;;;;;1999.90;999.90;;;3.40;99.90;;;;;;5051992;28;20476;-68
2022/01/31 06:20:12;;;;;;;1999.90;999.90;;;3.40;99.90;;;;;;5051853;28;20446;-68
2022/01/31 06:22:46;;;;;;;1999.90;999.90;;;3.40;99.90;;;;;;5051806;28;20481;-71
2022/01/31 06:25:13;;;;;;;1999.90;999.90;;;3.50;99.90;;;;;;5050585;28;20449;-69
2022/01/31 06:27:40;;;;;;;1999.90;999.90;;;3.50;99.90;;;;;;5051215;28;21008;-69
2022/01/31 06:30:08;;;;;;;1999.90;999.90;;;3.50;99.90;;;;;;5051555;28;20541;-69
2022/01/31 06:32:35;;;;;;;1999.90;999.90;;;3.50;99.90;;;;;;5051410;28;21026;-69
2022/01/31 06:35:01;;;;;;;1999.90;999.90;;;3.60;99.90;;;;;;5051992;28;20446;-71
2022/01/31 06:37:28;;;;;;;1999.90;999.90;;;3.50;99.90;;;;;;5051771;28;20466;-69
2022/01/31 06:39:56;;;;;;;1999.90;999.90;;;3.60;99.90;;;;;;5051420;28;20496;-69
2022/01/31 06:42:23;;;;;;;1999.90;999.90;;;3.60;99.90;;;;;;5051703;28;20527;-69
2022/01/31 06:44:49;;;;;;;1999.90;999.90;;;3.50;99.90;;;;;;5052093;28;20450;-70
2022/01/31 06:47:18;;;;;;;1999.90;999.90;;;3.60;99.90;;;;;;5050817;28;21229;-69
2022/01/31 06:49:44;;;;;;;1999.90;999.90;;;3.70;99.90;;;;;;5052145;28;20465;-69
2022/01/31 06:52:11;;;;;;;1999.90;999.90;;;3.60;99.90;;;;;;5051398;28;20447;-70
2022/01/31 06:54:38;;;;;;;1999.90;999.90;;;3.70;99.90;;;;;;5051597;28;20454;-70
2022/01/31 06:57:06;;;;;;;1999.90;999.90;;;3.80;99.90;;;;;;5050534;28;20478;-69
2022/01/31 06:59:33;;;;;;;1999.90;999.90;;;3.70;99.90;;;;;;5051293;28;20938;-70
2022/01/31 07:01:59;;;;;;;1999.90;999.90;;;3.80;99.90;;;;;;5051259;28;20449;-71
2022/01/31 07:04:26;;;;;;;1999.90;999.90;;;3.90;99.90;;;;;;5051854;28;20505;-69
2022/01/31 07:06:53;;;;;;;1999.90;999.90;;;3.90;99.90;;;;;;5053380;28;20504;-69
2022/01/31 07:09:21;;;;;;;1999.90;999.90;;;3.90;99.90;;;;;;5055923;28;20458;-70
2022/01/31 07:11:50;;;;;;;1999.90;999.90;;;3.90;99.90;;;;;;5055787;28;20442;-69
2022/01/31 07:14:30;;;;;;;1999.90;999.90;;;3.80;99.90;;;;;;5055269;28;20512;-69
2022/01/31 07:16:58;;;;;;;1999.90;999.90;;;3.80;99.90;;;;;;5055090;28;21012;-69
2022/01/31 07:19:28;;;;;;;1999.90;999.90;;;3.80;99.90;;;;;;5054895;28;20454;-70
2022/01/31 07:21:55;;;;;;;1999.90;999.90;;;3.80;99.90;;;;;;5055280;28;20473;-68
2022/01/31 07:24:25;;;;;;;1999.90;999.90;;;3.70;99.90;;;;;;5054671;28;20455;-70
2022/01/31 07:26:52;;;;;;;1999.90;999.90;;;3.60;99.90;;;;;;5055304;28;20552;-71
2022/01/31 07:29:21;;;;;;;1999.90;999.90;;;3.50;99.90;;;;;;5054912;28;20450;-69
2022/01/31 07:31:48;;;;;;;1999.90;999.90;;;3.60;99.90;;;;;;5055070;28;20511;-70
2022/01/31 07:34:17;;;;;;;1999.90;999.90;;;3.60;99.90;;;;;;5054791;28;20954;-69
2022/01/31 07:36:44;;;;;;;1999.90;999.90;;;3.70;99.90;;;;;;5054651;28;20454;-69
2022/01/31 07:39:11;;;;;;;1999.90;999.90;;;3.60;99.90;;;;;;5054477;28;20871;-70
2022/01/31 07:41:38;;;;;;;1999.90;999.90;;;3.70;99.90;;;;;;5054451;28;20450;-69
2022/01/31 07:44:05;;;;;;;1999.90;999.90;;;3.80;99.90;;;;;;5055288;28;20485;-70
2022/01/31 07:46:33;;;;;;;1999.90;999.90;;;3.80;99.90;;;;;;5054691;28;20499;-69
2022/01/31 07:49:00;;;;;;;1999.90;999.90;;;3.80;99.90;;;;;;5054371;28;20454;-72
2022/01/31 07:51:27;;;;;;;1999.90;999.90;;;3.70;99.90;;;;;;5054251;28;20450;-70
2022/01/31 07:53:54;;;;;;;1999.90;999.90;;;3.70;99.90;;;;;;5054817;28;20446;-70
2022/01/31 07:56:20;;;;;;;1999.90;999.90;;;3.70;99.90;;;;;;5054712;28;20500;-70
2022/01/31 07:58:48;;;;;;;1999.90;999.90;;;3.70;99.90;;;;;;5054860;28;20470;-70
2022/01/31 08:01:15;;;;;;;1999.90;999.90;;;3.80;99.90;;;;;;5054687;28;20438;-70
2022/01/31 08:03:45;;;;;;;1999.90;999.90;;;3.90;99.90;;;;;;5054323;28;20814;-70
2022/01/31 08:06:11;;;;;;;1999.90;999.90;;;3.80;99.90;;;;;;5054893;28;20537;-69
2022/01/31 08:08:38;;;;;;;1999.90;999.90;;;3.80;99.90;;;;;;5054660;28;20478;-70
2022/01/31 08:11:05;;;;;;;1999.90;999.90;;;3.70;99.90;;;;;;5054427;28;20448;-70
2022/01/31 08:13:33;;;;;;;1999.90;999.90;;;3.80;99.90;;;;;;5054536;28;20533;-70
2022/01/31 08:16:09;;;;;;;1999.90;999.90;;;3.80;99.90;;;;;;5054297;28;20454;-70
2022/01/31 08:18:36;;;;;;;1999.90;999.90;;;3.80;99.90;;;;;;5051199;28;20482;-71
2022/01/31 08:21:05;;;;;;;1999.90;999.90;;;3.90;99.90;;;;;;5051458;28;20438;-70
2022/01/31 08:23:31;;;;;;;1999.90;999.90;;;3.90;99.90;;;;;;5052710;28;20482;-72
2022/01/31 08:26:00;;;;;;;1999.90;999.90;;;3.90;99.90;;;;;;5053880;28;20493;-70
2022/01/31 08:28:36;;;;;;;1999.90;999.90;;;3.90;99.90;;;;;;5054147;28;20509;-69
2022/01/31 08:31:10;;;;;;;1999.90;999.90;;;4.00;99.90;;;;;;5041174;28;20984;-70
2022/01/31 08:33:39;;;;;;;1999.90;999.90;;;4.10;99.90;;;;;;5053683;28;20470;-71
2022/01/31 08:36:08;;;;;;;1999.90;999.90;;;4.00;99.90;;;;;;5052245;28;20451;-69
2022/01/31 08:38:38;;;;;;;1999.90;999.90;;;4.10;99.90;;;;;;5052867;28;20470;-70
2022/01/31 08:41:05;;;;;;;1999.90;999.90;;;4.10;99.90;;;;;;5053437;28;20486;-70
2022/01/31 08:43:32;;;;;;;1999.90;999.90;;;4.10;99.90;;;;;;5049402;28;20486;-70
2022/01/31 08:45:59;;;;;;;1999.90;999.90;;;4.10;99.90;;;;;;5053896;28;20517;-72
2022/01/31 08:48:27;;;;;;;1999.90;999.90;;;4.30;99.90;;;;;;5053248;28;20466;-70
2022/01/31 08:50:55;;;;;;;1999.90;999.90;;;4.30;99.90;;;;;;5053556;28;20446;-70
2022/01/31 08:53:24;;;;;;;1999.90;999.90;;;4.30;99.90;;;;;;5053388;28;20454;-71
2022/01/31 08:55:52;;;;;;;1999.90;999.90;;;4.40;99.90;;;;;;5052873;28;20796;-72
2022/01/31 08:58:20;;;;;;;1999.90;999.90;;;4.40;99.90;;;;;;5053754;28;20462;-71
2022/01/31 09:00:49;;;;;;;1999.90;999.90;;;4.40;99.90;;;;;;5053615;28;20529;-70
2022/01/31 09:03:23;;;;;;;1999.90;999.90;;;4.40;99.90;;;;;;5053523;28;20994;-70
2022/01/31 09:05:50;;;;;;;1999.90;999.90;;;4.40;99.90;;;;;;5053356;28;20485;-70
2022/01/31 09:08:17;;;;;;;1999.90;999.90;;;4.50;99.90;;;;;;5053439;28;20539;-71
2022/01/31 09:10:45;;;;;;;1999.90;999.90;;;4.50;99.90;;;;;;5052659;28;20511;-70
2022/01/31 09:13:14;;;;;;;1999.90;999.90;;;4.50;99.90;;;;;;5053806;28;20447;-70
2022/01/31 09:15:41;;;;;;;1999.90;999.90;;;4.50;99.90;;;;;;5053453;28;20450;-70
2022/01/31 09:18:08;;;;;;;1999.90;999.90;;;4.60;99.90;;;;;;5053214;28;20523;-71
2022/01/31 09:20:36;;;;;;;1999.90;999.90;;;4.60;99.90;;;;;;5052770;28;20492;-70
2022/01/31 09:23:03;;;;;;;1999.90;999.90;;;4.70;99.90;;;;;;5053328;28;20482;-70
2022/01/31 09:25:30;;;;;;;1999.90;999.90;;;4.70;99.90;;;;;;5053274;28;20455;-69
2022/01/31 09:27:58;;;;;;;1999.90;999.90;;;4.70;99.90;;;;;;5053338;28;20466;-70
2022/01/31 09:30:26;;;;;;;1999.90;999.90;;;4.70;99.90;;;;;;5052567;28;20454;-70
2022/01/31 09:32:54;;;;;;;1999.90;999.90;;;4.70;99.90;;;;;;5053161;28;20451;-70
2022/01/31 09:35:21;;;;;;;1999.90;999.90;;;4.70;99.90;;;;;;5053022;28;20541;-70
2022/01/31 09:37:48;;;;;;;1999.90;999.90;;;4.70;99.90;;;;;;5052652;28;21046;-70
2022/01/31 09:40:19;;;;;;;1999.90;999.90;;;4.80;99.90;;;;;;5052477;28;20992;-70
2022/01/31 09:43:07;;;;;;;1999.90;999.90;;;4.80;99.90;;;;;;5053210;28;20962;-72
2022/01/31 09:45:50;;;;;;;1999.90;999.90;;;4.90;99.90;;;;;;5053156;28;20450;-72
2022/01/31 09:48:33;;;;;;;1999.90;999.90;;;5.00;99.90;;;;;;5053419;28;20553;-70
2022/01/31 09:51:02;;;;;;;1999.90;999.90;;;5.00;99.90;;;;;;5052152;28;20486;-70
2022/01/31 09:53:30;;;;;;;1999.90;999.90;;;5.20;99.90;;;;;;5053056;28;20481;-71
2022/01/31 09:55:58;;;;;;;1999.90;999.90;;;5.20;99.90;;;;;;5053389;28;21008;-71
2022/01/31 09:58:29;;;;;;;1999.90;999.90;;;5.30;99.90;;;;;;5053853;28;20525;-70
2022/01/31 10:01:04;;;;;;;1999.90;999.90;;;5.30;99.90;;;;;;5054337;28;20450;-70
2022/01/31 10:03:31;;;;;;;1999.90;999.90;;;5.50;99.90;;;;;;5053197;28;20477;-70
2022/01/31 10:05:58;;;;;;;1999.90;999.90;;;5.50;99.90;;;;;;5053838;28;20480;-72
2022/01/31 10:08:29;;;;;;;1999.90;999.90;;;5.60;99.90;;;;;;5054843;28;20492;-70
2022/01/31 10:11:00;;;;;;;1999.90;999.90;;;5.80;99.90;;;;;;5055647;28;20458;-71
2022/01/31 10:16:28;;;;;;;1999.90;999.90;;;6.30;99.90;;;;;;5052571;28;20442;-72
2022/01/31 10:19:00;;;;;;;1999.90;999.90;;;6.30;99.90;;;;;;5054291;28;20466;-70
2022/01/31 10:21:27;;;;;;;1999.90;999.90;;;6.40;99.90;;;;;;5056091;28;20518;-70
2022/01/31 10:23:54;;;;;;;1999.90;999.90;;;6.50;99.90;;;;;;5056303;28;20489;-70
2022/01/31 10:26:31;;;;;;;1999.90;999.90;;;6.50;99.90;;;;;;5056352;28;20529;-70
2022/01/31 10:29:12;;;;;;;1999.90;999.90;;;6.60;99.90;;;;;;5055629;28;20511;-70
2022/01/31 10:31:53;;;;;;;1999.90;999.90;;;6.60;99.90;;;;;;5055458;28;20446;-70
2022/01/31 10:34:23;;;;;;;1999.90;999.90;;;6.50;99.90;;;;;;5056291;28;20514;-71
2022/01/31 10:36:50;;;;;;;1999.90;999.90;;;6.50;99.90;;;;;;5056000;28;20482;-71
2022/01/31 10:43:37;;;;;;;1999.90;999.90;;;6.70;99.90;;;;;;5055632;28;20435;-69
2022/01/31 10:50:48;;;;;;;1999.90;999.90;;;6.90;99.90;;;;;;5052830;28;20921;-70
2022/01/31 10:53:15;;;;;;;1999.90;999.90;;;6.70;99.90;;;;;;5054216;28;21122;-70
2022/01/31 10:55:41;;;;;;;1999.90;999.90;;;6.60;99.90;;;;;;5054938;28;20492;-70
2022/01/31 10:58:12;;;;;;;1999.90;999.90;;;6.60;99.90;;;;;;5055924;28;20462;-70
2022/01/31 11:00:41;;;;;;;1999.90;999.90;;;6.60;99.90;;;;;;5055477;28;20528;-70
2022/01/31 11:03:28;;;;;;;1999.90;999.90;;;6.70;99.90;;;;;;5055819;28;20506;-70
2022/01/31 11:05:55;;;;;;;1999.90;999.90;;;6.60;99.90;;;;;;5052849;28;20503;-70
2022/01/31 11:08:22;;;;;;;1999.90;999.90;;;6.50;99.90;;;;;;5052870;28;20516;-70
2022/01/31 11:10:49;;;;;;;1999.90;999.90;;;6.40;99.90;;;;;;5052200;28;20454;-70
2022/01/31 11:13:16;;;;;;;1999.90;999.90;;;6.30;99.90;;;;;;5052751;28;20516;-70
2022/01/31 11:15:44;;;;;;;1999.90;999.90;;;6.30;99.90;;;;;;5053581;28;20446;-70
2022/01/31 11:18:13;;;;;;;1999.90;999.90;;;6.30;99.90;;;;;;5054222;28;20473;-70
2022/01/31 11:20:44;;;;;;;1999.90;999.90;;;6.20;99.90;;;;;;5052388;28;20450;-70
2022/01/31 11:23:12;;;;;;;1999.90;999.90;;;6.40;99.90;;;;;;5053569;28;20473;-69
2022/01/31 11:25:41;;;;;;;1999.90;999.90;;;6.50;99.90;;;;;;5055373;28;20854;-70
2022/01/31 11:28:14;;;;;;;1999.90;999.90;;;6.50;99.90;;;;;;5054185;28;21205;-70
2022/01/31 11:30:41;;;;;;;1999.90;999.90;;;6.40;99.90;;;;;;5053929;28;20516;-70
2022/01/31 11:33:11;;;;;;;1999.90;999.90;;;6.50;99.90;;;;;;5053711;28;20533;-71
2022/01/31 11:35:38;;;;;;;1999.90;999.90;;;6.50;99.90;;;;;;5054400;28;20447;-70
2022/01/31 11:38:05;;;;;;;1999.90;999.90;;;6.40;99.90;;;;;;5055623;28;20528;-70
2022/01/31 11:40:31;;;;;;;1999.90;999.90;;;6.30;99.90;;;;;;5054694;28;20454;-70
2022/01/31 11:42:59;;;;;;;1999.90;999.90;;;6.40;99.90;;;;;;5055427;28;20442;-70
2022/01/31 11:45:29;;;;;;;1999.90;999.90;;;6.40;99.90;;;;;;5055234;28;20486;-70
2022/01/31 11:48:03;;;;;;;1999.90;999.90;;;6.40;99.90;;;;;;5055020;28;20982;-70
2022/01/31 11:50:31;;;;;;;1999.90;999.90;;;6.30;99.90;;;;;;5053503;28;20446;-71
2022/01/31 11:53:00;;;;;;;1999.90;999.90;;;6.20;99.90;;;;;;5052903;28;20874;-68
2022/01/31 11:55:33;;;;;;;1999.90;999.90;;;6.10;99.90;;;;;;5057037;28;20446;-69
2022/01/31 11:57:59;;;;;;;1999.90;999.90;;;6.10;99.90;;;;;;5056246;28;21231;-72
2022/01/31 12:00:28;;;;;;;1999.90;999.90;;;6.10;99.90;;;;;;5054232;28;20537;-72
2022/01/31 12:03:01;;;;;;;1999.90;999.90;;;6.10;99.90;;;;;;5054239;28;21023;-71
2022/01/31 12:05:30;;;;;;;1999.90;999.90;;;6.20;99.90;;;;;;5054627;28;20462;-72
2022/01/31 12:08:04;;;;;;;1999.90;999.90;;;6.20;99.90;;;;;;5054070;28;20474;-72
2022/01/31 12:10:34;;;;;;;1999.90;999.90;;;6.30;99.90;;;;;;5054385;28;20450;-73
2022/01/31 12:13:12;;;;;;;1999.90;999.90;;;6.30;99.90;;;;;;5054043;28;20519;-73
2022/01/31 12:24:27;;;;;;;1999.90;999.90;;;6.50;99.90;;;;;;5053879;28;20501;-72
2022/01/31 12:26:56;;;;;;;1999.90;999.90;;;6.40;99.90;;;;;;5054261;28;20473;-72
2022/01/31 12:29:25;;;;;;;1999.90;999.90;;;6.30;99.90;;;;;;5053660;28;20515;-72
2022/01/31 12:31:54;;;;;;;1999.90;999.90;;;6.40;99.90;;;;;;5054138;28;20503;-72
2022/01/31 12:34:44;;;;;;;1999.90;999.90;;;6.40;99.90;;;;;;5053718;28;20912;-73